sensor_id;sensor_type;location;lat;lon;timestamp;pressure;altitude;pressure_sealevel;temperature;humidity
13836;BME280;6988;52.614;13.500;2023-02-01T00:03:36;54840.72;;;-143.77;81.22
13836;BME280;6988;52.614;13.500;2023-02-01T00:08:28;54838.66;;;-143.77;81.04
13836;BME280;6988;52.614;13.500;2023-02-01T00:13:21;54867.38;;;-143.77;80.65
13836;BME280;6988;52.614;13.500;2023-02-01T00:18:12;54822.25;;;-143.77;81.07
13836;BME280;6988;52.614;13.500;2023-02-01T00:23:06;54830.44;;;-143.77;80.93
13836;BME280;6988;52.614;13.500;2023-02-01T00:27:59;54848.91;;;-143.77;80.99
13836;BME280;6988;52.614;13.500;2023-02-01T00:32:51;54834.56;;;-143.77;80.76
13836;BME280;6988;52.614;13.500;2023-02-01T00:37:43;54848.91;;;-143.77;80.18
13836;BME280;6988;52.614;13.500;2023-02-01T00:42:36;54850.97;;;-143.77;79.62
13836;BME280;6988;52.614;13.500;2023-02-01T00:47:27;54807.88;;;-143.77;78.81
13836;BME280;6988;52.614;13.500;2023-02-01T00:52:20;54844.81;;;-143.77;78.18
13836;BME280;6988;52.614;13.500;2023-02-01T00:57:12;54811.97;;;-143.77;78.33
13836;BME280;6988;52.614;13.500;2023-02-01T01:02:05;54857.13;;;-143.77;78.21
13836;BME280;6988;52.614;13.500;2023-02-01T01:06:57;54820.19;;;-143.77;77.73
13836;BME280;6988;52.614;13.500;2023-02-01T01:11:49;54826.34;;;-143.77;78.04
13836;BME280;6988;52.614;13.500;2023-02-01T01:16:41;54816.09;;;-143.77;77.48
13836;BME280;6988;52.614;13.500;2023-02-01T01:21:34;54850.97;;;-143.77;77.68
13836;BME280;6988;52.614;13.500;2023-02-01T01:26:28;54820.19;;;-143.77;77.67
13836;BME280;6988;52.614;13.500;2023-02-01T01:31:21;54807.88;;;-143.77;77.77
13836;BME280;6988;52.614;13.500;2023-02-01T01:36:13;54828.41;;;-143.77;77.98
13836;BME280;6988;52.614;13.500;2023-02-01T01:41:07;54820.19;;;-143.77;77.80
13836;BME280;6988;52.614;13.500;2023-02-01T01:45:59;54846.88;;;-143.77;77.81
13836;BME280;6988;52.614;13.500;2023-02-01T01:50:58;54822.25;;;-143.77;77.54
13836;BME280;6988;52.614;13.500;2023-02-01T01:55:56;54830.44;;;-143.77;77.17
13836;BME280;6988;52.614;13.500;2023-02-01T02:00:50;54816.09;;;-143.77;77.23
13836;BME280;6988;52.614;13.500;2023-02-01T02:05:42;54848.91;;;-143.77;77.83
13836;BME280;6988;52.614;13.500;2023-02-01T02:10:36;54836.59;;;-143.77;77.58
13836;BME280;6988;52.614;13.500;2023-02-01T02:16:00;54824.28;;;-143.77;77.46
13836;BME280;6988;52.614;13.500;2023-02-01T02:21:15;54822.25;;;-143.77;77.00
13836;BME280;6988;52.614;13.500;2023-02-01T02:32:06;54824.28;;;-143.77;76.60
13836;BME280;6988;52.614;13.500;2023-02-01T02:37:20;54836.59;;;-143.77;76.30
13836;BME280;6988;52.614;13.500;2023-02-01T02:42:25;54830.44;;;-143.77;75.81
13836;BME280;6988;52.614;13.500;2023-02-01T02:47:46;54828.41;;;-143.77;76.81
13836;BME280;6988;52.614;13.500;2023-02-01T02:52:51;54830.44;;;-143.77;76.46
13836;BME280;6988;52.614;13.500;2023-02-01T02:58:13;54842.75;;;-143.77;76.50
13836;BME280;6988;52.614;13.500;2023-02-01T03:03:24;54840.72;;;-143.77;76.25
13836;BME280;6988;52.614;13.500;2023-02-01T03:08:35;54828.41;;;-143.77;75.75
13836;BME280;6988;52.614;13.500;2023-02-01T03:13:36;54832.50;;;-143.77;76.32
13836;BME280;6988;52.614;13.500;2023-02-01T03:18:35;54816.09;;;-143.77;75.72
13836;BME280;6988;52.614;13.500;2023-02-01T03:23:33;54828.41;;;-143.77;76.37
13836;BME280;6988;52.614;13.500;2023-02-01T03:28:33;54803.78;;;-143.77;76.63
13836;BME280;6988;52.614;13.500;2023-02-01T03:33:28;54785.31;;;-143.77;76.20
13836;BME280;6988;52.614;13.500;2023-02-01T03:38:27;54830.44;;;-143.77;76.53
13836;BME280;6988;52.614;13.500;2023-02-01T03:43:25;54846.88;;;-143.77;76.41
13836;BME280;6988;52.614;13.500;2023-02-01T03:48:23;54840.72;;;-143.77;76.06
13836;BME280;6988;52.614;13.500;2023-02-01T03:53:20;54853.03;;;-143.77;76.42
13836;BME280;6988;52.614;13.500;2023-02-01T03:58:18;54826.34;;;-143.77;76.07
13836;BME280;6988;52.614;13.500;2023-02-01T04:03:10;54805.81;;;-143.77;75.68
13836;BME280;6988;52.614;13.500;2023-02-01T04:08:04;54818.13;;;-143.77;76.22
13836;BME280;6988;52.614;13.500;2023-02-01T04:12:56;54828.41;;;-143.77;76.03
13836;BME280;6988;52.614;13.500;2023-02-01T04:17:48;54830.44;;;-143.77;75.66
13836;BME280;6988;52.614;13.500;2023-02-01T04:22:40;54846.88;;;-143.77;76.06
13836;BME280;6988;52.614;13.500;2023-02-01T04:27:34;54820.19;;;-143.77;75.20
13836;BME280;6988;52.614;13.500;2023-02-01T04:32:26;54797.63;;;-143.77;75.24
13836;BME280;6988;52.614;13.500;2023-02-01T04:37:18;54830.44;;;-143.77;75.00
13836;BME280;6988;52.614;13.500;2023-02-01T04:42:09;54791.47;;;-143.77;75.24
13836;BME280;6988;52.614;13.500;2023-02-01T04:47:03;54789.41;;;-143.77;74.98
13836;BME280;6988;52.614;13.500;2023-02-01T04:51:55;54795.56;;;-143.77;75.42
13836;BME280;6988;52.614;13.500;2023-02-01T04:56:46;54824.28;;;-143.77;74.97
13836;BME280;6988;52.614;13.500;2023-02-01T05:01:38;54832.50;;;-143.77;74.71
13836;BME280;6988;52.614;13.500;2023-02-01T05:06:32;54781.19;;;-143.77;74.78
13836;BME280;6988;52.614;13.500;2023-02-01T05:11:23;54818.13;;;-143.77;75.36
13836;BME280;6988;52.614;13.500;2023-02-01T05:16:33;54797.63;;;-143.77;74.84
13836;BME280;6988;52.614;13.500;2023-02-01T05:21:25;54779.16;;;-143.77;74.69
13836;BME280;6988;52.614;13.500;2023-02-01T05:26:18;54805.81;;;-143.77;74.39
13836;BME280;6988;52.614;13.500;2023-02-01T05:31:10;54781.19;;;-143.77;74.03
13836;BME280;6988;52.614;13.500;2023-02-01T05:36:03;54799.66;;;-143.77;74.47
13836;BME280;6988;52.614;13.500;2023-02-01T05:40:55;54811.97;;;-143.77;73.83
13836;BME280;6988;52.614;13.500;2023-02-01T05:45:48;54816.09;;;-143.77;73.85
13836;BME280;6988;52.614;13.500;2023-02-01T05:50:40;54793.50;;;-143.77;73.63
13836;BME280;6988;52.614;13.500;2023-02-01T05:55:33;54799.66;;;-143.77;73.27
13836;BME280;6988;52.614;13.500;2023-02-01T06:00:25;54807.88;;;-143.77;73.57
13836;BME280;6988;52.614;13.500;2023-02-01T06:05:18;54797.63;;;-143.77;73.36
13836;BME280;6988;52.614;13.500;2023-02-01T06:10:11;54773.00;;;-143.77;72.52
13836;BME280;6988;52.614;13.500;2023-02-01T06:15:03;54807.88;;;-143.77;73.06
13836;BME280;6988;52.614;13.500;2023-02-01T06:19:55;54811.97;;;-143.77;72.90
13836;BME280;6988;52.614;13.500;2023-02-01T06:24:48;54795.56;;;-143.77;74.35
13836;BME280;6988;52.614;13.500;2023-02-01T06:29:40;54805.81;;;-143.77;75.75
13836;BME280;6988;52.614;13.500;2023-02-01T06:34:32;54814.03;;;-143.77;76.72
13836;BME280;6988;52.614;13.500;2023-02-01T06:39:24;54809.94;;;-143.77;76.94
13836;BME280;6988;52.614;13.500;2023-02-01T06:44:19;54768.88;;;-143.77;78.02
13836;BME280;6988;52.614;13.500;2023-02-01T06:49:11;54820.19;;;-143.77;78.57
13836;BME280;6988;52.614;13.500;2023-02-01T06:54:03;54865.34;;;-143.77;79.04
13836;BME280;6988;52.614;13.500;2023-02-01T06:58:55;54791.47;;;-143.77;78.94
13836;BME280;6988;52.614;13.500;2023-02-01T07:03:49;54799.66;;;-143.77;79.44
13836;BME280;6988;52.614;13.500;2023-02-01T07:08:42;54809.94;;;-143.77;79.28
13836;BME280;6988;52.614;13.500;2023-02-01T07:13:35;54838.66;;;-143.77;79.11
13836;BME280;6988;52.614;13.500;2023-02-01T07:18:28;54828.41;;;-143.77;78.31
13836;BME280;6988;52.614;13.500;2023-02-01T07:23:22;54830.44;;;-143.77;77.62
13836;BME280;6988;52.614;13.500;2023-02-01T07:28:14;54811.97;;;-143.77;77.79
13836;BME280;6988;52.614;13.500;2023-02-01T07:33:07;54838.66;;;-143.77;78.23
13836;BME280;6988;52.614;13.500;2023-02-01T07:37:59;54820.19;;;-143.77;78.15
13836;BME280;6988;52.614;13.500;2023-02-01T07:42:52;54809.94;;;-143.77;78.02
13836;BME280;6988;52.614;13.500;2023-02-01T07:47:44;54807.88;;;-143.77;79.05
13836;BME280;6988;52.614;13.500;2023-02-01T07:52:35;54785.31;;;-143.77;78.48
13836;BME280;6988;52.614;13.500;2023-02-01T07:57:27;54824.28;;;-143.77;79.12
13836;BME280;6988;52.614;13.500;2023-02-01T08:02:20;54826.34;;;-143.77;80.34
13836;BME280;6988;52.614;13.500;2023-02-01T08:07:12;54816.09;;;-143.77;80.94
13836;BME280;6988;52.614;13.500;2023-02-01T08:12:04;54824.28;;;-143.77;81.24
13836;BME280;6988;52.614;13.500;2023-02-01T08:16:56;54846.88;;;-143.77;82.06
13836;BME280;6988;52.614;13.500;2023-02-01T08:21:49;54850.97;;;-143.77;82.19
13836;BME280;6988;52.614;13.500;2023-02-01T08:26:41;54820.19;;;-143.77;82.93
13836;BME280;6988;52.614;13.500;2023-02-01T08:31:33;54848.91;;;-143.77;83.65
13836;BME280;6988;52.614;13.500;2023-02-01T08:36:29;54824.28;;;-143.77;83.65
13836;BME280;6988;52.614;13.500;2023-02-01T08:41:25;54857.13;;;-143.77;84.13
13836;BME280;6988;52.614;13.500;2023-02-01T08:46:17;54824.28;;;-143.77;84.66
13836;BME280;6988;52.614;13.500;2023-02-01T08:51:12;54836.59;;;-143.77;84.94
13836;BME280;6988;52.614;13.500;2023-02-01T08:56:05;54832.50;;;-143.77;85.83
13836;BME280;6988;52.614;13.500;2023-02-01T09:01:03;54824.28;;;-143.77;86.01
13836;BME280;6988;52.614;13.500;2023-02-01T09:06:00;54838.66;;;-143.77;86.32
13836;BME280;6988;52.614;13.500;2023-02-01T09:10:52;54867.38;;;-143.77;86.55
13836;BME280;6988;52.614;13.500;2023-02-01T09:15:44;54859.19;;;-143.77;86.42
13836;BME280;6988;52.614;13.500;2023-02-01T09:20:38;54877.66;;;-143.77;86.64
13836;BME280;6988;52.614;13.500;2023-02-01T09:25:30;54881.75;;;-143.77;86.82
13836;BME280;6988;52.614;13.500;2023-02-01T09:30:21;54861.22;;;-143.77;86.88
13836;BME280;6988;52.614;13.500;2023-02-01T09:35:13;54838.66;;;-143.77;86.25
13836;BME280;6988;52.614;13.500;2023-02-01T09:40:13;54836.59;;;-143.77;85.90
13836;BME280;6988;52.614;13.500;2023-02-01T09:45:22;54846.88;;;-143.77;86.21
13836;BME280;6988;52.614;13.500;2023-02-01T09:50:20;54807.88;;;-143.77;86.14
13836;BME280;6988;52.614;13.500;2023-02-01T09:55:20;54838.66;;;-143.77;86.18
13836;BME280;6988;52.614;13.500;2023-02-01T10:00:21;54826.34;;;-143.77;85.15
13836;BME280;6988;52.614;13.500;2023-02-01T10:05:20;54805.81;;;-143.77;84.64
13836;BME280;6988;52.614;13.500;2023-02-01T10:10:28;54824.28;;;-143.77;84.10
13836;BME280;6988;52.614;13.500;2023-02-01T10:15:32;54848.91;;;-143.77;84.20
13836;BME280;6988;52.614;13.500;2023-02-01T10:20:44;54846.88;;;-143.77;83.77
13836;BME280;6988;52.614;13.500;2023-02-01T10:25:53;54834.56;;;-143.77;83.39
13836;BME280;6988;52.614;13.500;2023-02-01T10:30:48;54797.63;;;-143.77;83.38
13836;BME280;6988;52.614;13.500;2023-02-01T10:35:40;54814.03;;;-143.77;84.04
13836;BME280;6988;52.614;13.500;2023-02-01T10:40:33;54795.56;;;-143.77;83.51
13836;BME280;6988;52.614;13.500;2023-02-01T10:45:29;54811.97;;;-143.77;84.16
13836;BME280;6988;52.614;13.500;2023-02-01T10:50:35;54807.88;;;-143.77;83.67
13836;BME280;6988;52.614;13.500;2023-02-01T10:55:39;54807.88;;;-143.77;83.76
13836;BME280;6988;52.614;13.500;2023-02-01T11:00:44;54828.41;;;-143.77;84.02
13836;BME280;6988;52.614;13.500;2023-02-01T11:05:45;54783.25;;;-143.77;83.24
13836;BME280;6988;52.614;13.500;2023-02-01T11:10:40;54793.50;;;-143.77;83.41
13836;BME280;6988;52.614;13.500;2023-02-01T11:15:32;54816.09;;;-143.77;83.40
13836;BME280;6988;52.614;13.500;2023-02-01T11:20:38;54777.09;;;-143.77;83.39
13836;BME280;6988;52.614;13.500;2023-02-01T11:25:35;54779.16;;;-143.77;81.93
13836;BME280;6988;52.614;13.500;2023-02-01T11:30:36;54773.00;;;-143.77;82.07
13836;BME280;6988;52.614;13.500;2023-02-01T11:35:34;54781.19;;;-143.77;81.83
13836;BME280;6988;52.614;13.500;2023-02-01T11:40:35;54768.88;;;-143.77;81.47
13836;BME280;6988;52.614;13.500;2023-02-01T11:45:29;54766.84;;;-143.77;81.46
13836;BME280;6988;52.614;13.500;2023-02-01T11:50:35;54729.91;;;-143.77;80.87
13836;BME280;6988;52.614;13.500;2023-02-01T11:55:45;54762.72;;;-143.77;80.52
13836;BME280;6988;52.614;13.500;2023-02-01T12:01:13;54754.53;;;-143.77;79.61
13836;BME280;6988;52.614;13.500;2023-02-01T12:06:23;54740.16;;;-143.77;77.55
13836;BME280;6988;52.614;13.500;2023-02-01T12:11:42;54715.53;;;-143.77;78.04
13836;BME280;6988;52.614;13.500;2023-02-01T12:16:48;54744.25;;;-143.77;76.54
13836;BME280;6988;52.614;13.500;2023-02-01T12:21:56;54748.38;;;-143.77;75.10
13836;BME280;6988;52.614;13.500;2023-02-01T12:27:08;54752.47;;;-143.77;74.70
13836;BME280;6988;52.614;13.500;2023-02-01T12:32:26;54738.09;;;-143.77;75.07
13836;BME280;6988;52.614;13.500;2023-02-01T12:37:37;54740.16;;;-143.77;73.94
13836;BME280;6988;52.614;13.500;2023-02-01T12:42:41;54721.69;;;-143.77;74.45
13836;BME280;6988;52.614;13.500;2023-02-01T12:47:41;54746.31;;;-143.77;75.97
13836;BME280;6988;52.614;13.500;2023-02-01T12:52:43;54760.69;;;-143.77;77.86
13836;BME280;6988;52.614;13.500;2023-02-01T12:57:40;54770.94;;;-143.77;77.99
13836;BME280;6988;52.614;13.500;2023-02-01T13:02:42;54848.91;;;-143.77;75.57
13836;BME280;6988;52.614;13.500;2023-02-01T13:07:43;54820.19;;;-143.77;75.86
13836;BME280;6988;52.614;13.500;2023-02-01T13:12:43;54857.13;;;-143.77;77.39
13836;BME280;6988;52.614;13.500;2023-02-01T13:17:38;54848.91;;;-143.77;79.09
13836;BME280;6988;52.614;13.500;2023-02-01T13:22:34;54885.84;;;-143.77;80.18
13836;BME280;6988;52.614;13.500;2023-02-01T13:27:32;54857.13;;;-143.77;80.92
13836;BME280;6988;52.614;13.500;2023-02-01T13:32:52;54910.47;;;-143.77;81.84
13836;BME280;6988;52.614;13.500;2023-02-01T13:38:19;54885.84;;;-143.77;82.54
13836;BME280;6988;52.614;13.500;2023-02-01T13:43:30;54889.97;;;-143.77;82.97
13836;BME280;6988;52.614;13.500;2023-02-01T13:48:29;54863.28;;;-143.77;83.40
13836;BME280;6988;52.614;13.500;2023-02-01T13:53:29;54904.31;;;-143.77;83.82
13836;BME280;6988;52.614;13.500;2023-02-01T13:58:32;54881.75;;;-143.77;83.62
13836;BME280;6988;52.614;13.500;2023-02-01T14:03:44;54883.81;;;-143.77;84.67
13836;BME280;6988;52.614;13.500;2023-02-01T14:08:44;54809.94;;;-143.77;85.60
13836;BME280;6988;52.614;13.500;2023-02-01T14:13:40;54861.22;;;-143.77;86.00
13836;BME280;6988;52.614;13.500;2023-02-01T14:18:59;54795.56;;;-143.77;85.16
13836;BME280;6988;52.614;13.500;2023-02-01T14:23:59;54838.66;;;-143.77;83.73
13836;BME280;6988;52.614;13.500;2023-02-01T14:29:00;54836.59;;;-143.77;82.65
13836;BME280;6988;52.614;13.500;2023-02-01T14:33:57;54838.66;;;-143.77;82.69
13836;BME280;6988;52.614;13.500;2023-02-01T14:38:50;54818.13;;;-143.77;82.62
13836;BME280;6988;52.614;13.500;2023-02-01T14:44:26;54822.25;;;-143.77;83.48
13836;BME280;6988;52.614;13.500;2023-02-01T14:49:18;54797.63;;;-143.77;83.37
13836;BME280;6988;52.614;13.500;2023-02-01T14:54:13;54809.94;;;-143.77;84.08
13836;BME280;6988;52.614;13.500;2023-02-01T14:59:11;54803.78;;;-143.77;84.37
13836;BME280;6988;52.614;13.500;2023-02-01T15:04:12;54828.41;;;-143.77;84.76
13836;BME280;6988;52.614;13.500;2023-02-01T15:09:09;54824.28;;;-143.77;84.48
13836;BME280;6988;52.614;13.500;2023-02-01T15:14:02;54816.09;;;-143.77;84.59
13836;BME280;6988;52.614;13.500;2023-02-01T15:19:13;54783.25;;;-143.77;84.61
13836;BME280;6988;52.614;13.500;2023-02-01T15:24:13;54816.09;;;-143.77;83.96
13836;BME280;6988;52.614;13.500;2023-02-01T15:29:10;54816.09;;;-143.77;83.48
13836;BME280;6988;52.614;13.500;2023-02-01T15:34:03;54783.25;;;-143.77;83.39
13836;BME280;6988;52.614;13.500;2023-02-01T15:39:14;54818.13;;;-143.77;83.61
13836;BME280;6988;52.614;13.500;2023-02-01T15:44:18;54828.41;;;-143.77;82.42
13836;BME280;6988;52.614;13.500;2023-02-01T15:49:23;54836.59;;;-143.77;83.63
13836;BME280;6988;52.614;13.500;2023-02-01T15:54:23;54836.59;;;-143.77;83.73
13836;BME280;6988;52.614;13.500;2023-02-01T15:59:19;54814.03;;;-143.77;84.23
13836;BME280;6988;52.614;13.500;2023-02-01T16:04:18;54844.81;;;-143.77;84.81
13836;BME280;6988;52.614;13.500;2023-02-01T16:09:13;54857.13;;;-143.77;84.22
13836;BME280;6988;52.614;13.500;2023-02-01T16:14:06;54836.59;;;-143.77;84.05
13836;BME280;6988;52.614;13.500;2023-02-01T16:18:58;54869.44;;;-143.77;84.24
13836;BME280;6988;52.614;13.500;2023-02-01T16:23:51;54863.28;;;-143.77;84.29
13836;BME280;6988;52.614;13.500;2023-02-01T16:28:43;54908.44;;;-143.77;84.62
13836;BME280;6988;52.614;13.500;2023-02-01T16:33:37;54889.97;;;-143.77;84.85
13836;BME280;6988;52.614;13.500;2023-02-01T16:38:29;54877.66;;;-143.77;85.00
13836;BME280;6988;52.614;13.500;2023-02-01T16:43:23;54865.34;;;-143.77;85.32
13836;BME280;6988;52.614;13.500;2023-02-01T16:48:23;54850.97;;;-143.77;85.40
13836;BME280;6988;52.614;13.500;2023-02-01T16:53:18;54896.13;;;-143.77;85.87
13836;BME280;6988;52.614;13.500;2023-02-01T16:58:10;54857.13;;;-143.77;85.93
13836;BME280;6988;52.614;13.500;2023-02-01T17:03:02;54900.22;;;-143.77;85.94
13836;BME280;6988;52.614;13.500;2023-02-01T17:07:58;54918.69;;;-143.77;86.18
13836;BME280;6988;52.614;13.500;2023-02-01T17:12:56;54883.81;;;-143.77;86.21
13836;BME280;6988;52.614;13.500;2023-02-01T17:17:48;54877.66;;;-143.77;86.53
13836;BME280;6988;52.614;13.500;2023-02-01T17:22:44;54892.00;;;-143.77;86.34
13836;BME280;6988;52.614;13.500;2023-02-01T17:27:36;54861.22;;;-143.77;86.42
13836;BME280;6988;52.614;13.500;2023-02-01T17:32:32;54883.81;;;-143.77;86.28
13836;BME280;6988;52.614;13.500;2023-02-01T17:37:27;54906.38;;;-143.77;86.49
13836;BME280;6988;52.614;13.500;2023-02-01T17:42:20;54881.75;;;-143.77;86.71
13836;BME280;6988;52.614;13.500;2023-02-01T17:47:12;54869.44;;;-143.77;86.70
13836;BME280;6988;52.614;13.500;2023-02-01T17:52:08;54857.13;;;-143.77;86.96
13836;BME280;6988;52.614;13.500;2023-02-01T17:57:11;54861.22;;;-143.77;86.71
13836;BME280;6988;52.614;13.500;2023-02-01T18:02:07;54873.53;;;-143.77;86.75
13836;BME280;6988;52.614;13.500;2023-02-01T18:07:00;54855.06;;;-143.77;86.97
13836;BME280;6988;52.614;13.500;2023-02-01T18:11:53;54857.13;;;-143.77;87.01
13836;BME280;6988;52.614;13.500;2023-02-01T18:16:46;54869.44;;;-143.77;86.44
13836;BME280;6988;52.614;13.500;2023-02-01T18:21:41;54881.75;;;-143.77;86.41
13836;BME280;6988;52.614;13.500;2023-02-01T18:26:33;54834.56;;;-143.77;86.23
13836;BME280;6988;52.614;13.500;2023-02-01T18:31:29;54869.44;;;-143.77;85.97
13836;BME280;6988;52.614;13.500;2023-02-01T18:36:23;54840.72;;;-143.77;85.68
13836;BME280;6988;52.614;13.500;2023-02-01T18:41:17;54865.34;;;-143.77;85.38
13836;BME280;6988;52.614;13.500;2023-02-01T18:46:12;54894.06;;;-143.77;85.85
13836;BME280;6988;52.614;13.500;2023-02-01T18:51:09;54848.91;;;-143.77;85.30
13836;BME280;6988;52.614;13.500;2023-02-01T18:56:01;54826.34;;;-143.77;85.52
13836;BME280;6988;52.614;13.500;2023-02-01T19:00:55;54857.13;;;-143.77;85.27
13836;BME280;6988;52.614;13.500;2023-02-01T19:05:47;54787.34;;;-143.77;85.06
13836;BME280;6988;52.614;13.500;2023-02-01T19:10:42;54869.44;;;-143.77;84.90
13836;BME280;6988;52.614;13.500;2023-02-01T19:15:34;54828.41;;;-143.77;84.29
13836;BME280;6988;52.614;13.500;2023-02-01T19:20:29;54848.91;;;-143.77;84.78
13836;BME280;6988;52.614;13.500;2023-02-01T19:38:27;54885.84;;;-143.77;84.17
13836;BME280;6988;52.614;13.500;2023-02-01T19:43:18;54861.22;;;-143.77;84.17
13836;BME280;6988;52.614;13.500;2023-02-01T19:48:10;54838.66;;;-143.77;84.13
13836;BME280;6988;52.614;13.500;2023-02-01T19:53:02;54828.41;;;-143.77;83.95
13836;BME280;6988;52.614;13.500;2023-02-01T19:57:56;54844.81;;;-143.77;83.35
13836;BME280;6988;52.614;13.500;2023-02-01T20:02:48;54861.22;;;-143.77;82.72
13836;BME280;6988;52.614;13.500;2023-02-01T20:07:39;54857.13;;;-143.77;82.69
13836;BME280;6988;52.614;13.500;2023-02-01T20:25:37;54840.72;;;-143.77;82.45
13836;BME280;6988;52.614;13.500;2023-02-01T20:30:29;54828.41;;;-143.77;82.48
13836;BME280;6988;52.614;13.500;2023-02-01T20:35:21;54818.13;;;-143.77;82.12
13836;BME280;6988;52.614;13.500;2023-02-01T20:40:16;54814.03;;;-143.77;81.15
13836;BME280;6988;52.614;13.500;2023-02-01T20:45:10;54826.34;;;-143.77;80.69
13836;BME280;6988;52.614;13.500;2023-02-01T20:50:02;54824.28;;;-143.77;80.80
13836;BME280;6988;52.614;13.500;2023-02-01T20:54:53;54832.50;;;-143.77;80.76
13836;BME280;6988;52.614;13.500;2023-02-01T20:59:45;54846.88;;;-143.77;80.15
13836;BME280;6988;52.614;13.500;2023-02-01T21:04:40;54844.81;;;-143.77;79.88
13836;BME280;6988;52.614;13.500;2023-02-01T21:09:32;54848.91;;;-143.77;79.95
13836;BME280;6988;52.614;13.500;2023-02-01T21:14:24;54842.75;;;-143.77;80.25
13836;BME280;6988;52.614;13.500;2023-02-01T21:19:17;54850.97;;;-143.77;79.64
13836;BME280;6988;52.614;13.500;2023-02-01T21:24:10;54836.59;;;-143.77;79.57
13836;BME280;6988;52.614;13.500;2023-02-01T21:29:02;54824.28;;;-143.77;79.49
13836;BME280;6988;52.614;13.500;2023-02-01T21:33:53;54838.66;;;-143.77;79.40
13836;BME280;6988;52.614;13.500;2023-02-01T21:38:46;54848.91;;;-143.77;79.66
13836;BME280;6988;52.614;13.500;2023-02-01T21:43:40;54816.09;;;-143.77;79.35
13836;BME280;6988;52.614;13.500;2023-02-01T21:48:32;54848.91;;;-143.77;79.06
13836;BME280;6988;52.614;13.500;2023-02-01T21:53:24;54844.81;;;-143.77;79.06
13836;BME280;6988;52.614;13.500;2023-02-01T21:58:16;54857.13;;;-143.77;79.42
13836;BME280;6988;52.614;13.500;2023-02-01T22:03:09;54859.19;;;-143.77;79.25
13836;BME280;6988;52.614;13.500;2023-02-01T22:08:01;54865.34;;;-143.77;79.37
13836;BME280;6988;52.614;13.500;2023-02-01T22:12:53;54838.66;;;-143.77;79.17
13836;BME280;6988;52.614;13.500;2023-02-01T22:17:45;54822.25;;;-143.77;78.50
13836;BME280;6988;52.614;13.500;2023-02-01T22:22:38;54850.97;;;-143.77;78.78
13836;BME280;6988;52.614;13.500;2023-02-01T22:27:30;54834.56;;;-143.77;78.82
13836;BME280;6988;52.614;13.500;2023-02-01T22:32:22;54840.72;;;-143.77;78.31
13836;BME280;6988;52.614;13.500;2023-02-01T22:37:14;54859.19;;;-143.77;77.28
13836;BME280;6988;52.614;13.500;2023-02-01T22:42:07;54824.28;;;-143.77;77.04
13836;BME280;6988;52.614;13.500;2023-02-01T23:05:07;54840.72;;;-143.77;78.31
13836;BME280;6988;52.614;13.500;2023-02-01T23:09:59;54887.91;;;-143.77;78.04
13836;BME280;6988;52.614;13.500;2023-02-01T23:14:53;54795.56;;;-143.77;77.75
13836;BME280;6988;52.614;13.500;2023-02-01T23:19:58;54828.41;;;-143.77;77.66
13836;BME280;6988;52.614;13.500;2023-02-01T23:24:51;54853.03;;;-143.77;77.82
13836;BME280;6988;52.614;13.500;2023-02-01T23:29:43;54811.97;;;-143.77;77.42
13836;BME280;6988;52.614;13.500;2023-02-01T23:34:35;54857.13;;;-143.77;77.60
13836;BME280;6988;52.614;13.500;2023-02-01T23:39:27;54840.72;;;-143.77;77.84
13836;BME280;6988;52.614;13.500;2023-02-01T23:44:20;54803.78;;;-143.77;77.86
13836;BME280;6988;52.614;13.500;2023-02-01T23:49:14;54834.56;;;-143.77;77.90
13836;BME280;6988;52.614;13.500;2023-02-01T23:54:08;54816.09;;;-143.77;77.88
13836;BME280;6988;52.614;13.500;2023-02-01T23:59:01;54799.66;;;-143.77;77.77
